www.cux-wetter.de
Wetterdaten: Mittwoch, 29.10.2008
Datum Zeit Temp. A. Feuchte A. Luftdruck Regen Wind Richtung Richtung Sonnenschein Solar Taupunkt Windchill Windben
29.10.2008 00:04 5,2 C 94 % 1006,5 hPa 0,0 l/m 11,3 km/h (2 Bft) W-SW 250 0 min 0 W/m 4,3 C 1,4 C 11,3 km/h (2 Bft)
29.10.2008 00:09 4,9 C 94 % 1006,5 hPa 0,0 l/m 8,1 km/h (2 Bft) W-SW 240 0 min 0 W/m 4,0 C 3,4 C 8,1 km/h (2 Bft)
29.10.2008 00:14 4,8 C 94 % 1006,5 hPa 0,0 l/m 9,4 km/h (2 Bft) SW 235 0 min 0 W/m 3,9 C 2,3 C 9,4 km/h (2 Bft)
29.10.2008 00:19 4,6 C 94 % 1006,5 hPa 0,0 l/m 7,6 km/h (2 Bft) SW 230 0 min 0 W/m 3,7 C 3,5 C 7,6 km/h (2 Bft)
29.10.2008 00:24 4,5 C 94 % 1006,5 hPa 0,0 l/m 5,9 km/h (2 Bft) SW 215 0 min 0 W/m 3,6 C 4,5 C 5,9 km/h (2 Bft)
29.10.2008 00:29 4,3 C 94 % 1006,5 hPa 0,0 l/m 6,9 km/h (2 Bft) S-SW 200 0 min 0 W/m 3,4 C 3,9 C 6,9 km/h (2 Bft)
29.10.2008 00:34 4,2 C 94 % 1006,5 hPa 0,0 l/m 5,8 km/h (2 Bft) S-SW 205 0 min 0 W/m 3,3 C 4,2 C 5,8 km/h (2 Bft)
29.10.2008 00:39 4,1 C 94 % 1006,5 hPa 0,0 l/m 5,6 km/h (2 Bft) SW 230 0 min 0 W/m 3,2 C 4,1 C 5,6 km/h (2 Bft)
29.10.2008 00:44 4,0 C 94 % 1006,5 hPa 0,0 l/m 5,2 km/h (1 Bft) SW 235 0 min 0 W/m 3,1 C 4,0 C 5,2 km/h (1 Bft)
29.10.2008 00:49 4,0 C 94 % 1006,5 hPa 0,0 l/m 6,3 km/h (2 Bft) SW 230 0 min 0 W/m 3,1 C 4,0 C 6,3 km/h (2 Bft)
29.10.2008 00:55 3,9 C 94 % 1006,5 hPa 0,0 l/m 6,7 km/h (2 Bft) SW 215 0 min 0 W/m 3,0 C 3,6 C 6,7 km/h (2 Bft)
29.10.2008 00:59 3,9 C 94 % 1006,5 hPa 0,0 l/m 6,3 km/h (2 Bft) SW 225 0 min 0 W/m 3,0 C 3,9 C 6,3 km/h (2 Bft)
29.10.2008 01:04 3,9 C 94 % 1006,5 hPa 0,0 l/m 5,2 km/h (1 Bft) W-SW 250 0 min 0 W/m 3,0 C 3,9 C 5,2 km/h (1 Bft)
29.10.2008 01:09 3,8 C 94 % 1006,5 hPa 0,0 l/m 5,2 km/h (1 Bft) S-SW 205 0 min 0 W/m 2,9 C 3,8 C 5,2 km/h (1 Bft)
29.10.2008 01:14 3,7 C 94 % 1007,5 hPa 0,0 l/m 6,5 km/h (2 Bft) S-SW 210 0 min 0 W/m 2,8 C 3,6 C 6,5 km/h (2 Bft)
29.10.2008 01:19 3,7 C 94 % 1007,5 hPa 0,0 l/m 5,5 km/h (2 Bft) SW 230 0 min 0 W/m 2,8 C 3,7 C 5,5 km/h (2 Bft)
29.10.2008 01:25 3,7 C 94 % 1007,5 hPa 0,0 l/m 11,4 km/h (2 Bft) SW 225 0 min 0 W/m 2,8 C -0,3 C 11,4 km/h (2 Bft)
29.10.2008 01:29 3,7 C 94 % 1007,5 hPa 0,0 l/m 6,9 km/h (2 Bft) S-SW 200 0 min 0 W/m 2,8 C 3,2 C 6,9 km/h (2 Bft)
29.10.2008 01:34 3,7 C 94 % 1007,5 hPa 0,0 l/m 6,5 km/h (2 Bft) S 190 0 min 0 W/m 2,8 C 3,6 C 6,5 km/h (2 Bft)
29.10.2008 01:39 3,6 C 94 % 1007,5 hPa 0,0 l/m 7,4 km/h (2 Bft) S-SW 195 0 min 0 W/m 2,7 C 2,7 C 7,4 km/h (2 Bft)
29.10.2008 01:44 3,5 C 94 % 1007,5 hPa 0,0 l/m 7,9 km/h (2 Bft) S-SW 200 0 min 0 W/m 2,6 C 2,1 C 7,9 km/h (2 Bft)
29.10.2008 01:49 3,5 C 95 % 1007,5 hPa 0,0 l/m 6,3 km/h (2 Bft) S-SW 195 0 min 0 W/m 2,8 C 3,5 C 6,3 km/h (2 Bft)
29.10.2008 01:54 3,5 C 95 % 1007,5 hPa 0,0 l/m 7,0 km/h (2 Bft) S 180 0 min 0 W/m 2,8 C 2,9 C 7,0 km/h (2 Bft)
29.10.2008 01:59 3,5 C 95 % 1007,5 hPa 0,0 l/m 5,5 km/h (2 Bft) S-SW 195 0 min 0 W/m 2,8 C 3,5 C 5,5 km/h (2 Bft)
29.10.2008 02:04 3,5 C 95 % 1007,5 hPa 0,0 l/m 3,9 km/h (1 Bft) S-SO 160 0 min 0 W/m 2,8 C 3,5 C 3,9 km/h (1 Bft)
29.10.2008 02:09 3,5 C 95 % 1007,5 hPa 0,0 l/m 6,7 km/h (2 Bft) S 175 0 min 0 W/m 2,8 C 3,2 C 6,7 km/h (2 Bft)
29.10.2008 02:14 3,5 C 95 % 1007,5 hPa 0,0 l/m 6,3 km/h (2 Bft) S-SW 195 0 min 0 W/m 2,8 C 3,5 C 6,3 km/h (2 Bft)
29.10.2008 02:19 3,4 C 95 % 1007,5 hPa 0,0 l/m 8,5 km/h (2 Bft) S 190 0 min 0 W/m 2,7 C 1,5 C 8,5 km/h (2 Bft)
29.10.2008 02:24 3,4 C 95 % 1006,5 hPa 0,0 l/m 13,6 km/h (3 Bft) S 185 0 min 0 W/m 2,7 C -2,1 C 13,6 km/h (3 Bft)
29.10.2008 02:29 3,3 C 95 % 1006,5 hPa 0,0 l/m 6,3 km/h (2 Bft) S 180 0 min 0 W/m 2,6 C 3,3 C 6,3 km/h (2 Bft)
29.10.2008 02:34 3,3 C 95 % 1006,5 hPa 0,0 l/m 7,3 km/h (2 Bft) SW 215 0 min 0 W/m 2,6 C 2,5 C 7,3 km/h (2 Bft)
29.10.2008 02:40 3,2 C 95 % 1006,5 hPa 0,0 l/m 8,7 km/h (2 Bft) S-SW 210 0 min 0 W/m 2,5 C 1,1 C 8,7 km/h (2 Bft)
29.10.2008 02:44 3,1 C 95 % 1006,5 hPa 0,0 l/m 6,1 km/h (2 Bft) SW 215 0 min 0 W/m 2,4 C 3,1 C 6,1 km/h (2 Bft)
29.10.2008 02:49 3,1 C 95 % 1006,5 hPa 0,0 l/m 5,8 km/h (2 Bft) W-SW 240 0 min 0 W/m 2,4 C 3,1 C 5,8 km/h (2 Bft)
29.10.2008 02:54 3,0 C 95 % 1006,5 hPa 0,0 l/m 5,2 km/h (1 Bft) S-SW 205 0 min 0 W/m 2,3 C 3,0 C 5,2 km/h (1 Bft)
29.10.2008 02:59 2,9 C 95 % 1006,5 hPa 0,0 l/m 4,2 km/h (1 Bft) S-SW 205 0 min 0 W/m 2,2 C 2,9 C 4,2 km/h (1 Bft)
29.10.2008 03:04 2,9 C 95 % 1006,5 hPa 0,0 l/m 6,3 km/h (2 Bft) SW 230 0 min 0 W/m 2,2 C 2,9 C 6,3 km/h (2 Bft)
29.10.2008 03:09 2,7 C 94 % 1006,5 hPa 0,0 l/m 7,6 km/h (2 Bft) SW 215 0 min 0 W/m 1,8 C 1,6 C 7,6 km/h (2 Bft)
29.10.2008 03:14 2,7 C 95 % 1006,5 hPa 0,0 l/m 7,4 km/h (2 Bft) S-SW 205 0 min 0 W/m 2,0 C 1,7 C 7,4 km/h (2 Bft)
29.10.2008 03:19 2,6 C 95 % 1006,5 hPa 0,0 l/m 7,0 km/h (2 Bft) SW 215 0 min 0 W/m 1,9 C 2,0 C 7,0 km/h (2 Bft)
29.10.2008 03:24 2,6 C 95 % 1006,5 hPa 0,0 l/m 5,9 km/h (2 Bft) SW 215 0 min 0 W/m 1,9 C 2,6 C 5,9 km/h (2 Bft)
29.10.2008 03:29 2,6 C 95 % 1006,5 hPa 0,0 l/m 6,8 km/h (2 Bft) SW 235 0 min 0 W/m 1,9 C 2,2 C 6,8 km/h (2 Bft)
29.10.2008 03:34 2,6 C 95 % 1006,5 hPa 0,0 l/m 9,6 km/h (2 Bft) W-SW 245 0 min 0 W/m 1,9 C -0,3 C 9,6 km/h (2 Bft)
29.10.2008 03:39 2,6 C 95 % 1006,5 hPa 0,0 l/m 8,8 km/h (2 Bft) W-SW 255 0 min 0 W/m 1,9 C 0,4 C 8,8 km/h (2 Bft)
29.10.2008 03:44 2,7 C 95 % 1006,5 hPa 0,0 l/m 9,0 km/h (2 Bft) W-SW 250 0 min 0 W/m 2,0 C 0,3 C 9,0 km/h (2 Bft)
29.10.2008 03:49 2,6 C 95 % 1006,5 hPa 0,0 l/m 5,6 km/h (2 Bft) SW 230 0 min 0 W/m 1,9 C 2,6 C 5,6 km/h (2 Bft)
29.10.2008 03:55 2,5 C 95 % 1006,5 hPa 0,0 l/m 6,8 km/h (2 Bft) SW 220 0 min 0 W/m 1,8 C 2,1 C 6,8 km/h (2 Bft)
29.10.2008 03:59 2,5 C 95 % 1006,5 hPa 0,0 l/m 7,9 km/h (2 Bft) SW 215 0 min 0 W/m 1,8 C 1,1 C 7,9 km/h (2 Bft)
29.10.2008 04:04 2,4 C 95 % 1006,5 hPa 0,0 l/m 6,7 km/h (2 Bft) S-SW 210 0 min 0 W/m 1,7 C 2,1 C 6,7 km/h (2 Bft)
29.10.2008 04:09 2,4 C 95 % 1006,5 hPa 0,0 l/m 9,6 km/h (2 Bft) SW 230 0 min 0 W/m 1,7 C -0,5 C 9,6 km/h (2 Bft)
29.10.2008 04:14 2,4 C 95 % 1006,5 hPa 0,0 l/m 9,4 km/h (2 Bft) W-SW 245 0 min 0 W/m 1,7 C -0,3 C 9,4 km/h (2 Bft)
29.10.2008 04:20 2,4 C 95 % 1006,5 hPa 0,0 l/m 8,5 km/h (2 Bft) SW 235 0 min 0 W/m 1,7 C 0,4 C 8,5 km/h (2 Bft)
29.10.2008 04:24 2,5 C 96 % 1006,5 hPa 0,0 l/m 9,1 km/h (2 Bft) W-SW 245 0 min 0 W/m 1,9 C 0,0 C 9,1 km/h (2 Bft)
29.10.2008 04:29 2,5 C 96 % 1006,5 hPa 0,0 l/m 10,4 km/h (2 Bft) W-SW 250 0 min 0 W/m 1,9 C -1,0 C 10,4 km/h (2 Bft)
29.10.2008 04:34 2,5 C 96 % 1006,5 hPa 0,0 l/m 8,6 km/h (2 Bft) W-SW 250 0 min 0 W/m 1,9 C 0,4 C 8,6 km/h (2 Bft)
29.10.2008 04:39 2,4 C 96 % 1006,5 hPa 0,0 l/m 10,5 km/h (2 Bft) W-SW 245 0 min 0 W/m 1,8 C -1,2 C 10,5 km/h (2 Bft)
29.10.2008 04:44 2,4 C 96 % 1006,5 hPa 0,0 l/m 9,2 km/h (2 Bft) W-SW 255 0 min 0 W/m 1,8 C -0,2 C 9,2 km/h (2 Bft)
29.10.2008 04:49 2,4 C 96 % 1006,5 hPa 0,0 l/m 11,5 km/h (2 Bft) W-SW 255 0 min 0 W/m 1,8 C -1,9 C 11,5 km/h (2 Bft)
29.10.2008 04:54 2,5 C 96 % 1006,5 hPa 0,0 l/m 10,5 km/h (2 Bft) W-SW 250 0 min 0 W/m 1,9 C -1,1 C 10,5 km/h (2 Bft)
29.10.2008 04:59 2,5 C 96 % 1006,5 hPa 0,0 l/m 9,2 km/h (2 Bft) SW 235 0 min 0 W/m 1,9 C -0,1 C 9,2 km/h (2 Bft)
29.10.2008 05:04 2,5 C 96 % 1006,5 hPa 0,0 l/m 8,2 km/h (2 Bft) SW 220 0 min 0 W/m 1,9 C 0,8 C 8,2 km/h (2 Bft)
29.10.2008 05:09 2,6 C 96 % 1006,5 hPa 0,0 l/m 12,1 km/h (2 Bft) SW 225 0 min 0 W/m 2,0 C -2,1 C 12,1 km/h (2 Bft)
29.10.2008 05:14 2,7 C 97 % 1006,5 hPa 0,0 l/m 7,2 km/h (2 Bft) W-SW 255 0 min 0 W/m 2,3 C 1,9 C 7,2 km/h (2 Bft)
29.10.2008 05:19 2,7 C 97 % 1006,5 hPa 0,0 l/m 10,1 km/h (2 Bft) W-SW 250 0 min 0 W/m 2,3 C -0,5 C 10,1 km/h (2 Bft)
29.10.2008 05:24 2,7 C 97 % 1006,5 hPa 0,0 l/m 11,3 km/h (2 Bft) W-SW 250 0 min 0 W/m 2,3 C -1,4 C 11,3 km/h (2 Bft)
29.10.2008 05:29 2,8 C 97 % 1006,5 hPa 0,0 l/m 12,3 km/h (2 Bft) W 260 0 min 0 W/m 2,4 C -2,0 C 12,3 km/h (2 Bft)
29.10.2008 05:35 2,8 C 97 % 1006,5 hPa 0,0 l/m 12,3 km/h (2 Bft) W 260 0 min 0 W/m 2,4 C -2,0 C 12,3 km/h (2 Bft)
29.10.2008 05:39 2,8 C 97 % 1006,5 hPa 0,0 l/m 11,1 km/h (2 Bft) W-SW 255 0 min 0 W/m 2,4 C -1,2 C 11,1 km/h (2 Bft)
29.10.2008 05:44 2,8 C 97 % 1006,5 hPa 0,0 l/m 11,6 km/h (2 Bft) W 260 0 min 0 W/m 2,4 C -1,5 C 11,6 km/h (2 Bft)
29.10.2008 05:49 2,8 C 97 % 1006,5 hPa 0,0 l/m 13,4 km/h (3 Bft) W-SW 250 0 min 0 W/m 2,4 C -2,7 C 13,4 km/h (3 Bft)
29.10.2008 05:54 2,8 C 97 % 1006,5 hPa 0,0 l/m 11,8 km/h (2 Bft) W-SW 250 0 min 0 W/m 2,4 C -1,6 C 11,8 km/h (2 Bft)
29.10.2008 05:59 2,7 C 97 % 1006,5 hPa 0,0 l/m 12,8 km/h (3 Bft) W-SW 255 0 min 0 W/m 2,3 C -2,4 C 12,8 km/h (3 Bft)
29.10.2008 06:04 2,7 C 97 % 1006,5 hPa 0,0 l/m 13,3 km/h (3 Bft) W 260 0 min 0 W/m 2,3 C -2,7 C 13,3 km/h (3 Bft)
29.10.2008 06:09 2,7 C 98 % 1006,5 hPa 0,0 l/m 17,3 km/h (3 Bft) W 260 0 min 0 W/m 2,4 C -4,9 C 17,3 km/h (3 Bft)
29.10.2008 06:14 2,7 C 98 % 1006,5 hPa 0,0 l/m 15,6 km/h (3 Bft) W 265 0 min 0 W/m 2,4 C -4,0 C 15,6 km/h (3 Bft)
29.10.2008 06:19 2,7 C 98 % 1006,5 hPa 0,0 l/m 13,5 km/h (3 Bft) W-SW 255 0 min 0 W/m 2,4 C -2,8 C 13,5 km/h (3 Bft)
29.10.2008 06:24 2,7 C 98 % 1006,5 hPa 0,0 l/m 18,5 km/h (3 Bft) W 265 0 min 0 W/m 2,4 C -5,5 C 18,5 km/h (3 Bft)
29.10.2008 06:29 2,7 C 98 % 1006,5 hPa 0,0 l/m 14,1 km/h (3 Bft) W-SW 245 0 min 0 W/m 2,4 C -3,2 C 14,1 km/h (3 Bft)
29.10.2008 06:34 2,7 C 98 % 1006,5 hPa 0,0 l/m 13,9 km/h (3 Bft) W-SW 250 0 min 0 W/m 2,4 C -3,1 C 13,9 km/h (3 Bft)
29.10.2008 06:39 2,8 C 98 % 1006,5 hPa 0,0 l/m 15,9 km/h (3 Bft) W-SW 255 0 min 0 W/m 2,5 C -4,1 C 15,9 km/h (3 Bft)
29.10.2008 06:44 2,9 C 98 % 1006,5 hPa 0,0 l/m 12,5 km/h (2 Bft) W-SW 255 0 min 0 W/m 2,6 C -2,0 C 12,5 km/h (2 Bft)
29.10.2008 06:49 2,9 C 98 % 1006,5 hPa 0,0 l/m 10,8 km/h (2 Bft) W-SW 250 0 min 0 W/m 2,6 C -0,8 C 10,8 km/h (2 Bft)
29.10.2008 06:54 2,9 C 98 % 1006,5 hPa 0,0 l/m 7,5 km/h (2 Bft) S-SW 210 0 min 0 W/m 2,6 C 1,9 C 7,5 km/h (2 Bft)
29.10.2008 06:59 2,9 C 98 % 1006,5 hPa 0,0 l/m 11,2 km/h (2 Bft) SW 225 0 min 0 W/m 2,6 C -1,1 C 11,2 km/h (2 Bft)
29.10.2008 07:04 2,9 C 98 % 1007,5 hPa 0,0 l/m 10,4 km/h (2 Bft) W-SW 240 0 min 0 W/m 2,6 C -0,5 C 10,4 km/h (2 Bft)
29.10.2008 07:10 2,9 C 98 % 1007,5 hPa 0,0 l/m 6,4 km/h (2 Bft) SW 235 0 min 0 W/m 2,6 C 2,9 C 6,4 km/h (2 Bft)
29.10.2008 07:14 2,9 C 98 % 1007,5 hPa 0,0 l/m 11,3 km/h (2 Bft) W 260 0 min 0 W/m 2,6 C -1,2 C 11,3 km/h (2 Bft)
29.10.2008 07:19 2,9 C 98 % 1007,5 hPa 0,0 l/m 12,6 km/h (3 Bft) W 260 0 min 0 W/m 2,6 C -2,1 C 12,6 km/h (3 Bft)
29.10.2008 07:24 2,8 C 98 % 1007,5 hPa 0,0 l/m 17,8 km/h (3 Bft) W-SW 255 0 min 0 W/m 2,5 C -5,0 C 17,8 km/h (3 Bft)
29.10.2008 07:29 2,8 C 98 % 1007,5 hPa 0,0 l/m 13,6 km/h (3 Bft) W-SW 255 0 min 0 W/m 2,5 C -2,8 C 13,6 km/h (3 Bft)
29.10.2008 07:34 2,8 C 98 % 1007,5 hPa 0,0 l/m 19,6 km/h (3 Bft) W 260 0 min 0 W/m 2,5 C -5,8 C 19,6 km/h (3 Bft)
29.10.2008 07:39 3,0 C 99 % 1007,5 hPa 0,0 l/m 16,1 km/h (3 Bft) W 260 0 min 0 W/m 2,9 C -3,9 C 16,1 km/h (3 Bft)
29.10.2008 07:44 3,5 C 99 % 1007,5 hPa 0,0 l/m 16,2 km/h (3 Bft) W 260 0 min 0 W/m 3,4 C -3,4 C 16,2 km/h (3 Bft)
29.10.2008 07:49 3,9 C 99 % 1007,5 hPa 0,0 l/m 14,2 km/h (3 Bft) W 260 0 min 0 W/m 3,8 C -1,8 C 14,2 km/h (3 Bft)
29.10.2008 07:54 4,1 C 99 % 1007,5 hPa 0,0 l/m 14,2 km/h (3 Bft) W-SW 255 0 min 0 W/m 4,0 C -1,6 C 14,2 km/h (3 Bft)
29.10.2008 07:59 4,2 C 99 % 1007,5 hPa 0,0 l/m 13,1 km/h (3 Bft) W-SW 255 0 min 0 W/m 4,1 C -0,8 C 13,1 km/h (3 Bft)
29.10.2008 08:04 4,2 C 98 % 1007,5 hPa 0,0 l/m 14,7 km/h (3 Bft) W 260 0 min 0 W/m 3,9 C -1,7 C 14,7 km/h (3 Bft)
29.10.2008 08:09 4,4 C 98 % 1007,5 hPa 0,0 l/m 14,7 km/h (3 Bft) W 265 0 min 0 W/m 4,1 C -1,5 C 14,7 km/h (3 Bft)
29.10.2008 08:15 4,7 C 97 % 1007,5 hPa 0,0 l/m 13,1 km/h (3 Bft) W 260 0 min 0 W/m 4,3 C -0,2 C 13,1 km/h (3 Bft)
29.10.2008 08:19 4,7 C 97 % 1007,5 hPa 0,0 l/m 12,5 km/h (2 Bft) W 265 0 min 0 W/m 4,3 C 0,1 C 12,5 km/h (2 Bft)
29.10.2008 08:24 4,4 C 95 % 1007,5 hPa 0,0 l/m 18,0 km/h (3 Bft) W-SW 255 0 min 0 W/m 3,7 C -3,1 C 18,0 km/h (3 Bft)
29.10.2008 08:29 4,6 C 95 % 1007,5 hPa 0,0 l/m 14,5 km/h (3 Bft) W 260 0 min 0 W/m 3,9 C -1,1 C 14,5 km/h (3 Bft)
29.10.2008 08:34 4,7 C 95 % 1007,5 hPa 0,0 l/m 13,3 km/h (3 Bft) W 260 0 min 0 W/m 4,0 C -0,4 C 13,3 km/h (3 Bft)
29.10.2008 08:39 5,1 C 95 % 1007,5 hPa 0,0 l/m 9,1 km/h (2 Bft) W-SW 250 0 min 0 W/m 4,4 C 2,8 C 9,1 km/h (2 Bft)
29.10.2008 08:44 5,3 C 94 % 1007,5 hPa 0,0 l/m 12,8 km/h (3 Bft) W-SW 250 0 min 0 W/m 4,4 C 0,6 C 12,8 km/h (3 Bft)
29.10.2008 08:49 4,9 C 93 % 1007,5 hPa 0,0 l/m 13,9 km/h (3 Bft) W 260 0 min 0 W/m 3,9 C -0,5 C 13,9 km/h (3 Bft)
29.10.2008 08:55 3,9 C 92 % 1007,5 hPa 0,0 l/m 13,8 km/h (3 Bft) W 260 0 min 0 W/m 2,7 C -1,6 C 13,8 km/h (3 Bft)
29.10.2008 08:59 3,5 C 94 % 1007,5 hPa 0,0 l/m 11,5 km/h (2 Bft) W 270 0 min 0 W/m 2,6 C -0,6 C 11,5 km/h (2 Bft)
29.10.2008 09:04 3,5 C 94 % 1007,5 hPa 0,0 l/m 16,6 km/h (3 Bft) W 265 0 min 0 W/m 2,6 C -3,6 C 16,6 km/h (3 Bft)
29.10.2008 09:09 3,3 C 95 % 1007,5 hPa 0,0 l/m 13,6 km/h (3 Bft) W-SW 255 0 min 0 W/m 2,6 C -2,2 C 13,6 km/h (3 Bft)
29.10.2008 09:14 3,3 C 95 % 1007,5 hPa 0,0 l/m 14,0 km/h (3 Bft) W 265 0 min 0 W/m 2,6 C -2,4 C 14,0 km/h (3 Bft)
29.10.2008 09:19 3,3 C 95 % 1007,5 hPa 0,0 l/m 13,3 km/h (3 Bft) W-SW 255 0 min 0 W/m 2,6 C -2,0 C 13,3 km/h (3 Bft)
29.10.2008 09:24 3,3 C 96 % 1007,5 hPa 0,0 l/m 16,3 km/h (3 Bft) W-SW 255 0 min 0 W/m 2,7 C -3,7 C 16,3 km/h (3 Bft)
29.10.2008 09:29 3,3 C 96 % 1007,5 hPa 0,0 l/m 12,4 km/h (2 Bft) W 260 0 min 0 W/m 2,7 C -1,5 C 12,4 km/h (2 Bft)
29.10.2008 09:34 3,4 C 96 % 1007,5 hPa 0,0 l/m 10,1 km/h (2 Bft) W 260 0 min 0 W/m 2,8 C 0,2 C 10,1 km/h (2 Bft)
29.10.2008 09:39 3,5 C 96 % 1007,5 hPa 0,0 l/m 9,4 km/h (2 Bft) W-SW 250 0 min 0 W/m 2,9 C 0,9 C 9,4 km/h (2 Bft)
29.10.2008 09:44 3,5 C 96 % 1007,5 hPa 0,0 l/m 9,0 km/h (2 Bft) W-SW 240 0 min 0 W/m 2,9 C 1,2 C 9,0 km/h (2 Bft)
29.10.2008 09:49 3,7 C 96 % 1007,5 hPa 0,0 l/m 12,2 km/h (2 Bft) W 260 0 min 0 W/m 3,1 C -0,9 C 12,2 km/h (2 Bft)
29.10.2008 09:54 3,7 C 96 % 1007,5 hPa 0,0 l/m 9,4 km/h (2 Bft) W-SW 255 0 min 0 W/m 3,1 C 1,1 C 9,4 km/h (2 Bft)
29.10.2008 09:59 3,9 C 96 % 1007,5 hPa 0,0 l/m 8,3 km/h (2 Bft) W-SW 240 0 min 0 W/m 3,3 C 2,2 C 8,3 km/h (2 Bft)
29.10.2008 10:04 4,2 C 96 % 1007,5 hPa 0,0 l/m 4,8 km/h (1 Bft) SW 215 0 min 0 W/m 3,6 C 4,2 C 4,8 km/h (1 Bft)
29.10.2008 10:09 4,5 C 97 % 1007,5 hPa 0,0 l/m 9,1 km/h (2 Bft) W-SW 245 0 min 0 W/m 4,1 C 2,2 C 9,1 km/h (2 Bft)
29.10.2008 10:14 4,6 C 97 % 1007,5 hPa 0,0 l/m 7,6 km/h (2 Bft) W-SW 240 0 min 0 W/m 4,2 C 3,5 C 7,6 km/h (2 Bft)
29.10.2008 10:19 4,9 C 97 % 1007,5 hPa 0,0 l/m 9,4 km/h (2 Bft) SW 225 0 min 0 W/m 4,5 C 2,4 C 9,4 km/h (2 Bft)
29.10.2008 10:24 5,1 C 96 % 1007,5 hPa 0,0 l/m 7,4 km/h (2 Bft) W-SW 255 0 min 0 W/m 4,5 C 4,2 C 7,4 km/h (2 Bft)
29.10.2008 10:29 5,2 C 96 % 1006,5 hPa 0,0 l/m 9,7 km/h (2 Bft) SW 215 0 min 0 W/m 4,6 C 2,5 C 9,7 km/h (2 Bft)
29.10.2008 10:34 5,4 C 96 % 1007,5 hPa 0,0 l/m 10,5 km/h (2 Bft) W-SW 250 0 min 0 W/m 4,8 C 2,2 C 10,5 km/h (2 Bft)
29.10.2008 10:39 5,4 C 96 % 1007,5 hPa 0,0 l/m 12,3 km/h (2 Bft) W-SW 250 0 min 0 W/m 4,8 C 1,0 C 12,3 km/h (2 Bft)
29.10.2008 10:44 5,4 C 95 % 1007,5 hPa 0,0 l/m 14,0 km/h (3 Bft) W-SW 255 0 min 0 W/m 4,7 C 0,1 C 14,0 km/h (3 Bft)
29.10.2008 10:49 5,2 C 94 % 1007,5 hPa 0,0 l/m 14,0 km/h (3 Bft) W-SW 255 0 min 0 W/m 4,3 C -0,2 C 14,0 km/h (3 Bft)
29.10.2008 10:54 5,2 C 95 % 1007,5 hPa 0,0 l/m 10,1 km/h (2 Bft) W-SW 255 0 min 0 W/m 4,5 C 2,2 C 10,1 km/h (2 Bft)
29.10.2008 10:59 5,8 C 96 % 1007,5 hPa 0,0 l/m 14,6 km/h (3 Bft) W-SW 250 0 min 0 W/m 5,2 C 0,2 C 14,6 km/h (3 Bft)
29.10.2008 11:04 6,0 C 95 % 1007,5 hPa 0,0 l/m 12,5 km/h (2 Bft) W-SW 255 0 min 0 W/m 5,3 C 1,6 C 12,5 km/h (2 Bft)
29.10.2008 11:09 6,0 C 94 % 1007,5 hPa 0,0 l/m 16,0 km/h (3 Bft) W 260 0 min 0 W/m 5,1 C -0,2 C 16,0 km/h (3 Bft)
29.10.2008 11:14 5,7 C 93 % 1007,5 hPa 0,0 l/m 14,0 km/h (3 Bft) W 260 0 min 0 W/m 4,7 C 0,4 C 14,0 km/h (3 Bft)
29.10.2008 11:19 5,8 C 93 % 1007,5 hPa 0,0 l/m 11,5 km/h (2 Bft) W 260 0 min 0 W/m 4,8 C 2,0 C 11,5 km/h (2 Bft)
29.10.2008 11:24 6,6 C 94 % 1007,5 hPa 0,0 l/m 7,2 km/h (2 Bft) SW 230 0 min 0 W/m 5,7 C 5,9 C 7,2 km/h (2 Bft)
29.10.2008 11:29 6,4 C 90 % 1007,5 hPa 0,0 l/m 10,9 km/h (2 Bft) W 260 0 min 0 W/m 4,9 C 3,0 C 10,9 km/h (2 Bft)
29.10.2008 11:34 6,0 C 89 % 1007,5 hPa 0,0 l/m 16,4 km/h (3 Bft) W-SW 250 0 min 0 W/m 4,3 C -0,4 C 16,4 km/h (3 Bft)
29.10.2008 11:39 6,1 C 89 % 1007,5 hPa 0,0 l/m 14,5 km/h (3 Bft) W 260 0 min 0 W/m 4,4 C 0,7 C 14,5 km/h (3 Bft)
29.10.2008 11:44 5,8 C 90 % 1007,5 hPa 0,0 l/m 14,8 km/h (3 Bft) W-SW 255 0 min 0 W/m 4,3 C 0,1 C 14,8 km/h (3 Bft)
29.10.2008 11:49 5,6 C 90 % 1007,5 hPa 0,0 l/m 18,9 km/h (3 Bft) W 260 0 min 0 W/m 4,1 C -2,0 C 18,9 km/h (3 Bft)
29.10.2008 11:54 5,7 C 91 % 1007,5 hPa 0,0 l/m 16,3 km/h (3 Bft) W 265 0 min 0 W/m 4,3 C -0,7 C 16,3 km/h (3 Bft)
29.10.2008 11:59 5,7 C 91 % 1006,5 hPa 0,0 l/m 16,5 km/h (3 Bft) W-SW 255 0 min 0 W/m 4,3 C -0,8 C 16,5 km/h (3 Bft)
29.10.2008 12:04 5,7 C 91 % 1006,5 hPa 0,0 l/m 15,0 km/h (3 Bft) W 260 0 min 0 W/m 4,3 C -0,1 C 15,0 km/h (3 Bft)
29.10.2008 12:09 5,7 C 91 % 1006,5 hPa 0,0 l/m 17,9 km/h (3 Bft) W 265 0 min 0 W/m 4,3 C -1,4 C 17,9 km/h (3 Bft)
29.10.2008 12:14 5,7 C 91 % 1006,5 hPa 0,0 l/m 11,3 km/h (2 Bft) W-SW 255 0 min 0 W/m 4,3 C 2,0 C 11,3 km/h (2 Bft)
29.10.2008 12:19 5,9 C 92 % 1006,5 hPa 0,0 l/m 12,3 km/h (2 Bft) SW 235 0 min 0 W/m 4,7 C 1,6 C 12,3 km/h (2 Bft)
29.10.2008 12:24 6,0 C 91 % 1006,5 hPa 0,0 l/m 12,2 km/h (2 Bft) W-SW 255 0 min 0 W/m 4,6 C 1,8 C 12,2 km/h (2 Bft)
29.10.2008 12:29 6,0 C 91 % 1006,5 hPa 0,0 l/m 13,0 km/h (3 Bft) W-SW 240 0 min 0 W/m 4,6 C 1,3 C 13,0 km/h (3 Bft)
29.10.2008 12:35 6,3 C 92 % 1006,5 hPa 0,0 l/m 12,0 km/h (2 Bft) SW 230 0 min 0 W/m 5,1 C 2,3 C 12,0 km/h (2 Bft)
29.10.2008 12:40 6,3 C 91 % 1006,5 hPa 0,0 l/m 9,6 km/h (2 Bft) W-SW 250 0 min 0 W/m 4,9 C 3,8 C 9,6 km/h (2 Bft)
29.10.2008 12:45 6,4 C 91 % 1006,5 hPa 0,0 l/m 10,5 km/h (2 Bft) SW 230 0 min 0 W/m 5,0 C 3,3 C 10,5 km/h (2 Bft)
29.10.2008 12:50 6,4 C 91 % 1006,5 hPa 0,0 l/m 10,7 km/h (2 Bft) W-SW 240 0 min 0 W/m 5,0 C 3,2 C 10,7 km/h (2 Bft)
29.10.2008 12:55 6,3 C 91 % 1006,5 hPa 0,0 l/m 5,6 km/h (2 Bft) W-SW 250 0 min 0 W/m 4,9 C 6,3 C 5,6 km/h (2 Bft)
29.10.2008 13:00 6,4 C 91 % 1006,5 hPa 0,0 l/m 11,3 km/h (2 Bft) SW 220 0 min 0 W/m 5,0 C 2,8 C 11,3 km/h (2 Bft)
29.10.2008 13:05 6,4 C 90 % 1006,5 hPa 0,0 l/m 7,4 km/h (2 Bft) S-SW 210 0 min 0 W/m 4,9 C 5,6 C 7,4 km/h (2 Bft)
29.10.2008 13:10 6,4 C 89 % 1006,5 hPa 0,0 l/m 12,3 km/h (2 Bft) W 260 0 min 0 W/m 4,7 C 2,2 C 12,3 km/h (2 Bft)
29.10.2008 13:15 6,5 C 89 % 1006,5 hPa 0,0 l/m 11,5 km/h (2 Bft) W-SW 245 0 min 0 W/m 4,8 C 2,8 C 11,5 km/h (2 Bft)
29.10.2008 13:20 6,6 C 89 % 1005,5 hPa 0,0 l/m 13,1 km/h (3 Bft) SW 220 0 min 0 W/m 4,9 C 2,0 C 13,1 km/h (3 Bft)
29.10.2008 13:25 6,7 C 89 % 1005,5 hPa 0,0 l/m 9,4 km/h (2 Bft) SW 235 0 min 0 W/m 5,0 C 4,4 C 9,4 km/h (2 Bft)
29.10.2008 13:30 6,8 C 89 % 1005,5 hPa 0,0 l/m 9,2 km/h (2 Bft) SW 230 0 min 0 W/m 5,1 C 4,6 C 9,2 km/h (2 Bft)
29.10.2008 13:35 6,8 C 89 % 1005,5 hPa 0,0 l/m 11,1 km/h (2 Bft) W-SW 240 0 min 0 W/m 5,1 C 3,4 C 11,1 km/h (2 Bft)
29.10.2008 13:39 6,9 C 89 % 1005,5 hPa 0,0 l/m 10,2 km/h (2 Bft) SW 225 0 min 0 W/m 5,2 C 4,0 C 10,2 km/h (2 Bft)
29.10.2008 13:44 7,0 C 89 % 1005,5 hPa 0,0 l/m 13,5 km/h (3 Bft) S-SW 195 0 min 0 W/m 5,3 C 2,2 C 13,5 km/h (3 Bft)
29.10.2008 13:49 6,9 C 89 % 1005,5 hPa 0,0 l/m 12,1 km/h (2 Bft) S 185 0 min 0 W/m 5,2 C 2,9 C 12,1 km/h (2 Bft)
29.10.2008 13:54 7,0 C 88 % 1006,5 hPa 0,0 l/m 13,5 km/h (3 Bft) SW 215 0 min 0 W/m 5,2 C 2,2 C 13,5 km/h (3 Bft)
29.10.2008 13:59 7,0 C 88 % 1005,5 hPa 0,0 l/m 11,0 km/h (2 Bft) SW 220 0 min 0 W/m 5,2 C 3,6 C 11,0 km/h (2 Bft)
29.10.2008 14:04 7,0 C 88 % 1005,5 hPa 0,0 l/m 11,0 km/h (2 Bft) S-SW 200 0 min 0 W/m 5,2 C 3,6 C 11,0 km/h (2 Bft)
29.10.2008 14:09 6,9 C 88 % 1005,5 hPa 0,0 l/m 10,8 km/h (2 Bft) SW 220 0 min 0 W/m 5,1 C 3,7 C 10,8 km/h (2 Bft)
29.10.2008 14:14 7,0 C 88 % 1005,5 hPa 0,0 l/m 9,6 km/h (2 Bft) SW 220 0 min 0 W/m 5,2 C 4,5 C 9,6 km/h (2 Bft)
29.10.2008 14:19 7,0 C 88 % 1005,5 hPa 0,0 l/m 10,7 km/h (2 Bft) SW 220 0 min 0 W/m 5,2 C 3,8 C 10,7 km/h (2 Bft)
29.10.2008 14:24 7,0 C 87 % 1005,5 hPa 0,0 l/m 8,7 km/h (2 Bft) W 260 0 min 0 W/m 5,0 C 5,2 C 8,7 km/h (2 Bft)
29.10.2008 14:29 6,9 C 85 % 1005,5 hPa 0,0 l/m 8,7 km/h (2 Bft) W 260 0 min 0 W/m 4,6 C 5,1 C 8,7 km/h (2 Bft)
29.10.2008 14:34 6,8 C 85 % 1005,5 hPa 0,0 l/m 13,5 km/h (3 Bft) W 265 0 min 0 W/m 4,5 C 2,0 C 13,5 km/h (3 Bft)
29.10.2008 14:39 6,8 C 86 % 1005,5 hPa 0,0 l/m 11,2 km/h (2 Bft) W-SW 255 0 min 0 W/m 4,6 C 3,3 C 11,2 km/h (2 Bft)
29.10.2008 14:44 6,8 C 87 % 1005,5 hPa 0,0 l/m 15,0 km/h (3 Bft) W 260 0 min 0 W/m 4,8 C 1,3 C 15,0 km/h (3 Bft)
29.10.2008 14:49 6,8 C 86 % 1005,5 hPa 0,0 l/m 11,0 km/h (2 Bft) W-SW 245 0 min 0 W/m 4,6 C 3,4 C 11,0 km/h (2 Bft)
29.10.2008 14:54 6,9 C 87 % 1005,5 hPa 0,0 l/m 8,1 km/h (2 Bft) W-SW 240 0 min 0 W/m 4,9 C 5,5 C 8,1 km/h (2 Bft)
29.10.2008 14:59 6,8 C 86 % 1005,5 hPa 0,0 l/m 14,0 km/h (3 Bft) W 260 0 min 0 W/m 4,6 C 1,8 C 14,0 km/h (3 Bft)
29.10.2008 15:04 6,7 C 86 % 1005,5 hPa 0,0 l/m 14,8 km/h (3 Bft) W-SW 255 0 min 0 W/m 4,5 C 1,2 C 14,8 km/h (3 Bft)
29.10.2008 15:09 6,6 C 86 % 1005,5 hPa 0,0 l/m 12,8 km/h (3 Bft) W-SW 250 0 min 0 W/m 4,4 C 2,1 C 12,8 km/h (3 Bft)
29.10.2008 15:14 6,6 C 87 % 1005,5 hPa 0,0 l/m 10,8 km/h (2 Bft) W 260 0 min 0 W/m 4,6 C 3,3 C 10,8 km/h (2 Bft)
29.10.2008 15:19 6,6 C 87 % 1005,5 hPa 0,0 l/m 10,5 km/h (2 Bft) W-SW 255 0 min 0 W/m 4,6 C 3,5 C 10,5 km/h (2 Bft)
29.10.2008 15:24 6,6 C 87 % 1005,5 hPa 0,0 l/m 8,0 km/h (2 Bft) W-SW 255 0 min 0 W/m 4,6 C 5,3 C 8,0 km/h (2 Bft)
29.10.2008 15:29 6,6 C 87 % 1005,5 hPa 0,0 l/m 11,3 km/h (2 Bft) W-SW 255 0 min 0 W/m 4,6 C 3,0 C 11,3 km/h (2 Bft)
29.10.2008 15:34 6,6 C 87 % 1005,5 hPa 0,0 l/m 10,6 km/h (2 Bft) W 260 0 min 0 W/m 4,6 C 3,4 C 10,6 km/h (2 Bft)
29.10.2008 15:39 6,5 C 87 % 1005,5 hPa 0,0 l/m 8,5 km/h (2 Bft) W-SW 245 0 min 0 W/m 4,5 C 4,8 C 8,5 km/h (2 Bft)
29.10.2008 15:44 6,5 C 87 % 1005,5 hPa 0,0 l/m 8,3 km/h (2 Bft) W-SW 255 0 min 0 W/m 4,5 C 4,9 C 8,3 km/h (2 Bft)
29.10.2008 15:49 6,4 C 88 % 1005,5 hPa 0,0 l/m 12,1 km/h (2 Bft) SW 225 0 min 0 W/m 4,6 C 2,3 C 12,1 km/h (2 Bft)
29.10.2008 15:54 6,4 C 88 % 1005,5 hPa 0,0 l/m 10,1 km/h (2 Bft) SW 230 0 min 0 W/m 4,6 C 3,6 C 10,1 km/h (2 Bft)
29.10.2008 15:59 6,4 C 88 % 1005,5 hPa 0,0 l/m 11,0 km/h (2 Bft) S-SW 195 0 min 0 W/m 4,6 C 3,0 C 11,0 km/h (2 Bft)
29.10.2008 16:04 6,2 C 88 % 1005,5 hPa 0,0 l/m 9,0 km/h (2 Bft) W-SW 240 0 min 0 W/m 4,4 C 4,1 C 9,0 km/h (2 Bft)
29.10.2008 16:09 6,1 C 88 % 1005,5 hPa 0,0 l/m 8,3 km/h (2 Bft) SW 220 0 min 0 W/m 4,3 C 4,5 C 8,3 km/h (2 Bft)
29.10.2008 16:14 6,1 C 88 % 1005,5 hPa 0,0 l/m 6,8 km/h (2 Bft) SW 230 0 min 0 W/m 4,3 C 5,8 C 6,8 km/h (2 Bft)
29.10.2008 16:19 6,0 C 89 % 1005,5 hPa 0,0 l/m 5,6 km/h (2 Bft) SW 220 0 min 0 W/m 4,3 C 6,0 C 5,6 km/h (2 Bft)
29.10.2008 16:24 5,8 C 89 % 1005,5 hPa 0,0 l/m 5,9 km/h (2 Bft) S-SW 210 0 min 0 W/m 4,1 C 5,8 C 5,9 km/h (2 Bft)
29.10.2008 16:29 5,8 C 89 % 1005,5 hPa 0,0 l/m 6,5 km/h (2 Bft) S-SW 205 0 min 0 W/m 4,1 C 5,7 C 6,5 km/h (2 Bft)
29.10.2008 16:34 5,6 C 89 % 1005,5 hPa 0,0 l/m 5,0 km/h (1 Bft) S-SW 205 0 min 0 W/m 3,9 C 5,6 C 5,0 km/h (1 Bft)
29.10.2008 16:39 5,4 C 89 % 1005,5 hPa 0,0 l/m 4,3 km/h (1 Bft) S-SW 210 0 min 0 W/m 3,7 C 5,4 C 4,3 km/h (1 Bft)
29.10.2008 16:44 5,4 C 89 % 1005,5 hPa 0,0 l/m 3,8 km/h (1 Bft) S-SW 210 0 min 0 W/m 3,7 C 5,4 C 3,8 km/h (1 Bft)
29.10.2008 16:49 5,2 C 89 % 1005,5 hPa 0,0 l/m 4,1 km/h (1 Bft) SW 215 0 min 0 W/m 3,5 C 5,2 C 4,1 km/h (1 Bft)
29.10.2008 16:54 4,9 C 89 % 1005,5 hPa 0,0 l/m 3,4 km/h (1 Bft) SW 215 0 min 0 W/m 3,2 C 4,9 C 3,4 km/h (1 Bft)
29.10.2008 16:59 4,8 C 89 % 1005,5 hPa 0,0 l/m 0,7 km/h (0 Bft) SW 225 0 min 0 W/m 3,1 C 4,8 C 0,7 km/h (0 Bft)
29.10.2008 17:04 4,6 C 89 % 1005,5 hPa 0,0 l/m 3,7 km/h (1 Bft) SW 235 0 min 0 W/m 2,9 C 4,6 C 3,7 km/h (1 Bft)
29.10.2008 17:09 4,4 C 90 % 1005,5 hPa 0,0 l/m 5,0 km/h (1 Bft) SW 235 0 min 0 W/m 2,9 C 4,4 C 5,0 km/h (1 Bft)
29.10.2008 17:14 4,3 C 90 % 1004,5 hPa 0,0 l/m 6,5 km/h (2 Bft) SW 215 0 min 0 W/m 2,8 C 4,2 C 6,5 km/h (2 Bft)
29.10.2008 17:19 4,3 C 90 % 1004,5 hPa 0,0 l/m 5,4 km/h (2 Bft) SW 225 0 min 0 W/m 2,8 C 4,3 C 5,4 km/h (2 Bft)
29.10.2008 17:24 4,1 C 90 % 1004,5 hPa 0,0 l/m 2,8 km/h (1 Bft) SW 220 0 min 0 W/m 2,6 C 4,1 C 2,8 km/h (1 Bft)
29.10.2008 17:29 4,0 C 90 % 1004,5 hPa 0,0 l/m 4,0 km/h (1 Bft) SW 220 0 min 0 W/m 2,5 C 4,0 C 4,0 km/h (1 Bft)
29.10.2008 17:35 3,9 C 90 % 1004,5 hPa 0,0 l/m 4,6 km/h (1 Bft) SW 230 0 min 0 W/m 2,4 C 3,9 C 4,6 km/h (1 Bft)
29.10.2008 17:40 3,8 C 91 % 1004,5 hPa 0,0 l/m 5,3 km/h (1 Bft) SW 220 0 min 0 W/m 2,5 C 3,8 C 5,3 km/h (1 Bft)
29.10.2008 17:44 3,7 C 91 % 1005,5 hPa 0,0 l/m 6,7 km/h (2 Bft) S-SW 205 0 min 0 W/m 2,4 C 3,4 C 6,7 km/h (2 Bft)
29.10.2008 17:49 3,7 C 91 % 1005,5 hPa 0,0 l/m 8,3 km/h (2 Bft) SW 215 0 min 0 W/m 2,4 C 2,0 C 8,3 km/h (2 Bft)
29.10.2008 17:54 3,6 C 91 % 1005,5 hPa 0,0 l/m 5,9 km/h (2 Bft) S-SW 210 0 min 0 W/m 2,3 C 3,6 C 5,9 km/h (2 Bft)
29.10.2008 17:59 3,5 C 91 % 1005,5 hPa 0,0 l/m 5,8 km/h (2 Bft) S-SW 200 0 min 0 W/m 2,2 C 3,5 C 5,8 km/h (2 Bft)
29.10.2008 18:04 3,5 C 91 % 1005,5 hPa 0,0 l/m 8,1 km/h (2 Bft) S-SW 200 0 min 0 W/m 2,2 C 1,9 C 8,1 km/h (2 Bft)
29.10.2008 18:09 3,4 C 91 % 1005,5 hPa 0,0 l/m 8,1 km/h (2 Bft) S-SW 210 0 min 0 W/m 2,1 C 1,8 C 8,1 km/h (2 Bft)
29.10.2008 18:14 3,3 C 91 % 1005,5 hPa 0,0 l/m 6,7 km/h (2 Bft) S-SW 205 0 min 0 W/m 2,0 C 3,0 C 6,7 km/h (2 Bft)
29.10.2008 18:19 3,3 C 91 % 1005,5 hPa 0,0 l/m 5,1 km/h (1 Bft) SW 215 0 min 0 W/m 2,0 C 3,3 C 5,1 km/h (1 Bft)
29.10.2008 18:24 3,2 C 91 % 1005,5 hPa 0,0 l/m 4,8 km/h (1 Bft) S-SW 205 0 min 0 W/m 1,9 C 3,2 C 4,8 km/h (1 Bft)
29.10.2008 18:30 3,1 C 91 % 1005,5 hPa 0,0 l/m 5,1 km/h (1 Bft) SW 225 0 min 0 W/m 1,8 C 3,1 C 5,1 km/h (1 Bft)
29.10.2008 18:34 3,1 C 92 % 1005,5 hPa 0,0 l/m 6,5 km/h (2 Bft) SW 235 0 min 0 W/m 1,9 C 3,0 C 6,5 km/h (2 Bft)
29.10.2008 18:39 3,1 C 92 % 1005,5 hPa 0,0 l/m 4,3 km/h (1 Bft) SW 235 0 min 0 W/m 1,9 C 3,1 C 4,3 km/h (1 Bft)
29.10.2008 18:44 3,0 C 92 % 1005,5 hPa 0,0 l/m 4,4 km/h (1 Bft) W-SW 240 0 min 0 W/m 1,8 C 3,0 C 4,4 km/h (1 Bft)
29.10.2008 18:49 3,0 C 92 % 1005,5 hPa 0,0 l/m 4,9 km/h (1 Bft) W-SW 245 0 min 0 W/m 1,8 C 3,0 C 4,9 km/h (1 Bft)
29.10.2008 18:54 3,0 C 92 % 1005,5 hPa 0,0 l/m 4,0 km/h (1 Bft) W-SW 245 0 min 0 W/m 1,8 C 3,0 C 4,0 km/h (1 Bft)
29.10.2008 18:59 2,9 C 92 % 1005,5 hPa 0,0 l/m 4,3 km/h (1 Bft) SW 215 0 min 0 W/m 1,7 C 2,9 C 4,3 km/h (1 Bft)
29.10.2008 19:05 2,8 C 92 % 1005,5 hPa 0,0 l/m 3,1 km/h (1 Bft) SW 225 0 min 0 W/m 1,6 C 2,8 C 3,1 km/h (1 Bft)
29.10.2008 19:09 2,7 C 92 % 1004,5 hPa 0,0 l/m 0,4 km/h (0 Bft) SW 215 0 min 0 W/m 1,5 C 2,7 C 0,4 km/h (0 Bft)
29.10.2008 19:14 2,6 C 92 % 1004,5 hPa 0,0 l/m 2,9 km/h (1 Bft) S-SW 210 0 min 0 W/m 1,4 C 2,6 C 2,9 km/h (1 Bft)
29.10.2008 19:20 2,4 C 92 % 1004,5 hPa 0,0 l/m 1,0 km/h (0 Bft) S 175 0 min 0 W/m 1,2 C 2,4 C 1,0 km/h (0 Bft)
29.10.2008 19:24 2,3 C 92 % 1004,5 hPa 0,0 l/m 0,4 km/h (0 Bft) S 185 0 min 0 W/m 1,1 C 2,3 C 0,4 km/h (0 Bft)
29.10.2008 19:29 2,3 C 92 % 1004,5 hPa 0,0 l/m 0,2 km/h (0 Bft) S 185 0 min 0 W/m 1,1 C 2,3 C 0,2 km/h (0 Bft)
29.10.2008 19:34 2,3 C 93 % 1004,5 hPa 0,0 l/m 4,0 km/h (1 Bft) W-SW 245 0 min 0 W/m 1,3 C 2,3 C 4,0 km/h (1 Bft)
29.10.2008 19:39 2,3 C 93 % 1004,5 hPa 0,0 l/m 3,4 km/h (1 Bft) W-SW 245 0 min 0 W/m 1,3 C 2,3 C 3,4 km/h (1 Bft)
29.10.2008 19:44 2,3 C 93 % 1004,5 hPa 0,0 l/m 2,2 km/h (1 Bft) W-SW 245 0 min 0 W/m 1,3 C 2,3 C 2,2 km/h (1 Bft)
29.10.2008 19:50 2,3 C 93 % 1004,5 hPa 0,0 l/m 0,0 km/h (0 Bft) W-SW 245 0 min 0 W/m 1,3 C 2,3 C 0,0 km/h (0 Bft)
29.10.2008 19:55 2,1 C 93 % 1004,5 hPa 0,0 l/m 2,4 km/h (1 Bft) W-SW 245 0 min 0 W/m 1,1 C 2,1 C 2,4 km/h (1 Bft)
29.10.2008 19:59 2,1 C 93 % 1004,5 hPa 0,0 l/m 2,8 km/h (1 Bft) W-SW 240 0 min 0 W/m 1,1 C 2,1 C 2,8 km/h (1 Bft)
29.10.2008 20:04 2,0 C 93 % 1004,5 hPa 0,0 l/m 3,1 km/h (1 Bft) W-SW 240 0 min 0 W/m 1,0 C 2,0 C 3,1 km/h (1 Bft)
29.10.2008 20:10 2,0 C 93 % 1004,5 hPa 0,0 l/m 0,9 km/h (0 Bft) W-SW 240 0 min 0 W/m 1,0 C 2,0 C 0,9 km/h (0 Bft)
29.10.2008 20:14 2,1 C 93 % 1004,5 hPa 0,0 l/m 2,1 km/h (1 Bft) W-SW 245 0 min 0 W/m 1,1 C 2,1 C 2,1 km/h (1 Bft)
29.10.2008 20:19 2,1 C 93 % 1004,5 hPa 0,0 l/m 0,4 km/h (0 Bft) W-SW 245 0 min 0 W/m 1,1 C 2,1 C 0,4 km/h (0 Bft)
29.10.2008 20:24 2,0 C 93 % 1004,5 hPa 0,0 l/m 0,1 km/h (0 Bft) W-SW 245 0 min 0 W/m 1,0 C 2,0 C 0,1 km/h (0 Bft)
29.10.2008 20:29 1,9 C 93 % 1004,5 hPa 0,0 l/m 2,1 km/h (1 Bft) W-SW 240 0 min 0 W/m 0,9 C 1,9 C 2,1 km/h (1 Bft)
29.10.2008 20:34 1,9 C 93 % 1004,5 hPa 0,0 l/m 0,6 km/h (0 Bft) W-SW 245 0 min 0 W/m 0,9 C 1,9 C 0,6 km/h (0 Bft)
29.10.2008 20:40 1,9 C 93 % 1004,5 hPa 0,0 l/m 4,6 km/h (1 Bft) W-SW 245 0 min 0 W/m 0,9 C 1,9 C 4,6 km/h (1 Bft)
29.10.2008 20:45 2,0 C 94 % 1004,5 hPa 0,0 l/m 4,6 km/h (1 Bft) W-SW 245 0 min 0 W/m 1,1 C 2,0 C 4,6 km/h (1 Bft)
29.10.2008 20:49 2,1 C 94 % 1004,5 hPa 0,0 l/m 3,7 km/h (1 Bft) W-SW 245 0 min 0 W/m 1,2 C 2,1 C 3,7 km/h (1 Bft)
29.10.2008 20:54 2,0 C 94 % 1004,5 hPa 0,0 l/m 3,1 km/h (1 Bft) W-SW 245 0 min 0 W/m 1,1 C 2,0 C 3,1 km/h (1 Bft)
29.10.2008 20:59 1,9 C 94 % 1004,5 hPa 0,0 l/m 0,0 km/h (0 Bft) W-SW 245 0 min 0 W/m 1,0 C 1,9 C 0,0 km/h (0 Bft)
29.10.2008 21:04 1,9 C 94 % 1004,5 hPa 0,0 l/m 0,3 km/h (0 Bft) W-SW 245 0 min 0 W/m 1,0 C 1,9 C 0,3 km/h (0 Bft)
29.10.2008 21:09 1,8 C 94 % 1004,5 hPa 0,0 l/m 0,1 km/h (0 Bft) W-SW 245 0 min 0 W/m 0,9 C 1,8 C 0,1 km/h (0 Bft)
29.10.2008 21:14 1,7 C 94 % 1004,5 hPa 0,0 l/m 0,3 km/h (0 Bft) W-SW 245 0 min 0 W/m 0,8 C 1,7 C 0,3 km/h (0 Bft)
29.10.2008 21:19 1,7 C 94 % 1004,5 hPa 0,0 l/m 0,4 km/h (0 Bft) W-SW 245 0 min 0 W/m 0,8 C 1,7 C 0,4 km/h (0 Bft)
29.10.2008 21:24 1,7 C 94 % 1004,5 hPa 0,0 l/m 0,0 km/h (0 Bft) W-SW 245 0 min 0 W/m 0,8 C 1,7 C 0,0 km/h (0 Bft)
29.10.2008 21:30 1,7 C 94 % 1004,5 hPa 0,0 l/m 0,1 km/h (0 Bft) W-SW 245 0 min 0 W/m 0,8 C 1,7 C 0,1 km/h (0 Bft)
29.10.2008 21:34 1,7 C 94 % 1004,5 hPa 0,0 l/m 0,1 km/h (0 Bft) W-SW 245 0 min 0 W/m 0,8 C 1,7 C 0,1 km/h (0 Bft)
29.10.2008 21:39 1,7 C 94 % 1004,5 hPa 0,0 l/m 0,1 km/h (0 Bft) W-SW 245 0 min 0 W/m 0,8 C 1,7 C 0,1 km/h (0 Bft)
29.10.2008 21:44 1,6 C 94 % 1004,5 hPa 0,0 l/m 0,0 km/h (0 Bft) W-SW 245 0 min 0 W/m 0,7 C 1,6 C 0,0 km/h (0 Bft)
29.10.2008 21:49 1,6 C 94 % 1004,5 hPa 0,0 l/m 0,0 km/h (0 Bft) W-SW 245 0 min 0 W/m 0,7 C 1,6 C 0,0 km/h (0 Bft)
29.10.2008 21:54 1,6 C 94 % 1004,5 hPa 0,0 l/m 0,0 km/h (0 Bft) W-SW 245 0 min 0 W/m 0,7 C 1,6 C 0,0 km/h (0 Bft)
29.10.2008 21:59 1,6 C 94 % 1004,5 hPa 0,0 l/m 0,0 km/h (0 Bft) W-SW 245 0 min 0 W/m 0,7 C 1,6 C 0,0 km/h (0 Bft)
29.10.2008 22:05 1,6 C 94 % 1003,5 hPa 0,0 l/m 0,0 km/h (0 Bft) W-SW 245 0 min 0 W/m 0,7 C 1,6 C 0,0 km/h (0 Bft)
29.10.2008 22:09 1,6 C 94 % 1003,5 hPa 0,0 l/m 0,1 km/h (0 Bft) W-SW 245 0 min 0 W/m 0,7 C 1,6 C 0,1 km/h (0 Bft)
29.10.2008 22:14 1,6 C 94 % 1003,5 hPa 0,0 l/m 1,5 km/h (1 Bft) W-SW 245 0 min 0 W/m 0,7 C 1,6 C 1,5 km/h (1 Bft)
29.10.2008 22:20 1,6 C 94 % 1003,5 hPa 0,0 l/m 2,7 km/h (1 Bft) W-SW 245 0 min 0 W/m 0,7 C 1,6 C 2,7 km/h (1 Bft)
29.10.2008 22:24 1,7 C 94 % 1003,5 hPa 0,0 l/m 2,1 km/h (1 Bft) W-SW 245 0 min 0 W/m 0,8 C 1,7 C 2,1 km/h (1 Bft)
29.10.2008 22:29 1,6 C 94 % 1003,5 hPa 0,0 l/m 0,0 km/h (0 Bft) W-SW 245 0 min 0 W/m 0,7 C 1,6 C 0,0 km/h (0 Bft)
29.10.2008 22:34 1,5 C 94 % 1003,5 hPa 0,0 l/m 2,7 km/h (1 Bft) W-SW 245 0 min 0 W/m 0,6 C 1,5 C 2,7 km/h (1 Bft)
29.10.2008 22:39 1,5 C 94 % 1003,5 hPa 0,0 l/m 0,1 km/h (0 Bft) W-SW 245 0 min 0 W/m 0,6 C 1,5 C 0,1 km/h (0 Bft)
29.10.2008 22:44 1,5 C 94 % 1003,5 hPa 0,0 l/m 0,1 km/h (0 Bft) W-SW 245 0 min 0 W/m 0,6 C 1,5 C 0,1 km/h (0 Bft)
29.10.2008 22:50 1,5 C 94 % 1003,5 hPa 0,0 l/m 3,7 km/h (1 Bft) S-SO 150 0 min 0 W/m 0,6 C 1,5 C 3,7 km/h (1 Bft)
29.10.2008 22:55 1,5 C 94 % 1003,5 hPa 0,0 l/m 2,2 km/h (1 Bft) S-SO 150 0 min 0 W/m 0,6 C 1,5 C 2,2 km/h (1 Bft)
29.10.2008 22:59 1,4 C 94 % 1003,5 hPa 0,0 l/m 0,6 km/h (0 Bft) S-SO 150 0 min 0 W/m 0,5 C 1,4 C 0,6 km/h (0 Bft)
29.10.2008 23:04 1,4 C 94 % 1003,5 hPa 0,0 l/m 2,1 km/h (1 Bft) S-SO 150 0 min 0 W/m 0,5 C 1,4 C 2,1 km/h (1 Bft)
29.10.2008 23:10 1,3 C 94 % 1003,5 hPa 0,0 l/m 1,9 km/h (1 Bft) S-SO 150 0 min 0 W/m 0,4 C 1,3 C 1,9 km/h (1 Bft)
29.10.2008 23:14 1,3 C 94 % 1003,5 hPa 0,0 l/m 0,5 km/h (0 Bft) S-SO 150 0 min 0 W/m 0,4 C 1,3 C 0,5 km/h (0 Bft)
29.10.2008 23:19 1,2 C 94 % 1003,5 hPa 0,0 l/m 0,0 km/h (0 Bft) S-SO 150 0 min 0 W/m 0,3 C 1,2 C 0,0 km/h (0 Bft)
29.10.2008 23:24 1,2 C 94 % 1003,5 hPa 0,0 l/m 0,0 km/h (0 Bft) S-SO 150 0 min 0 W/m 0,3 C 1,2 C 0,0 km/h (0 Bft)
29.10.2008 23:29 1,2 C 94 % 1003,5 hPa 0,0 l/m 0,0 km/h (0 Bft) S-SO 150 0 min 0 W/m 0,3 C 1,2 C 0,0 km/h (0 Bft)
29.10.2008 23:34 1,2 C 94 % 1003,5 hPa 0,0 l/m 0,1 km/h (0 Bft) S-SO 150 0 min 0 W/m 0,3 C 1,2 C 0,1 km/h (0 Bft)
29.10.2008 23:40 1,1 C 94 % 1003,5 hPa 0,0 l/m 0,5 km/h (0 Bft) S-SO 150 0 min 0 W/m 0,2 C 1,1 C 0,5 km/h (0 Bft)
29.10.2008 23:44 1,2 C 95 % 1003,5 hPa 0,0 l/m 3,5 km/h (1 Bft) S-SO 150 0 min 0 W/m 0,5 C 1,2 C 3,5 km/h (1 Bft)
29.10.2008 23:49 1,2 C 95 % 1002,5 hPa 0,0 l/m 3,8 km/h (1 Bft) S-SW 200 0 min 0 W/m 0,5 C 1,2 C 3,8 km/h (1 Bft)
29.10.2008 23:54 1,2 C 95 % 1002,5 hPa 0,0 l/m 3,4 km/h (1 Bft) S-SW 195 0 min 0 W/m 0,5 C 1,2 C 3,4 km/h (1 Bft)
29.10.2008 23:59 1,1 C 95 % 1002,5 hPa 0,0 l/m 0,0 km/h (0 Bft) S 185 0 min 0 W/m 0,4 C 1,1 C 0,0 km/h (0 Bft)
_ Min-Zeit 23:40 14:29 23:49 - 19:50 - - - - 23:40 07:34 19:50
Minimum _ 1,1 C 85 % 1002,5 hPa - 0,0 km/h (0 Bft) - - - - 0,2 C -5,8 C 0,0 km/h (0 Bft)
_ Max-Zeit 13:44 07:39 01:14 00:04 07:34 - - 00:04 00:04 11:24 12:55 07:34
Maximum _ 7,0 C 99 % 1007,5 hPa 0,0 l/m 19,6 km/h
W (3 Bft)
- - 0 min 0 W/m 5,7 C 6,3 C 19,6 km/h
W (3 Bft)
Durchschnitt _ 3,8 C 93 % 1006,0 hPa #0,0 l/m 8,1 km/h (2 Bft) W-SW - #0 min. 0 W/m 2,8 C 1,6 C 8,1 km/h (2 Bft)
copyright by Holger Just